sensor_id;sensor_type;location;lat;lon;timestamp;P1;durP1;ratioP1;P2;durP2;ratioP2
545;SDS011;259;53.304;9.816;2024-03-02T00:00:11;2.97;;;2.73;;
545;SDS011;259;53.304;9.816;2024-03-02T00:02:44;3.87;;;3.57;;
545;SDS011;259;53.304;9.816;2024-03-02T00:05:11;2.73;;;2.53;;
545;SDS011;259;53.304;9.816;2024-03-02T00:07:43;2.97;;;2.80;;
545;SDS011;259;53.304;9.816;2024-03-02T00:10:15;3.10;;;2.90;;
545;SDS011;259;53.304;9.816;2024-03-02T00:12:46;2.60;;;2.40;;
545;SDS011;259;53.304;9.816;2024-03-02T00:15:58;2.00;;;1.90;;
545;SDS011;259;53.304;9.816;2024-03-02T00:18:12;2.63;;;2.43;;
545;SDS011;259;53.304;9.816;2024-03-02T00:20:43;3.00;;;2.77;;
545;SDS011;259;53.304;9.816;2024-03-02T00:23:09;3.17;;;2.97;;
545;SDS011;259;53.304;9.816;2024-03-02T00:25:39;2.60;;;2.40;;
545;SDS011;259;53.304;9.816;2024-03-02T00:28:20;2.77;;;2.57;;
545;SDS011;259;53.304;9.816;2024-03-02T00:30:51;2.57;;;2.37;;
545;SDS011;259;53.304;9.816;2024-03-02T00:33:22;2.90;;;2.70;;
545;SDS011;259;53.304;9.816;2024-03-02T00:35:48;2.93;;;2.73;;
545;SDS011;259;53.304;9.816;2024-03-02T00:38:15;2.77;;;2.57;;
545;SDS011;259;53.304;9.816;2024-03-02T00:40:44;2.97;;;2.77;;
545;SDS011;259;53.304;9.816;2024-03-02T00:46:12;2.60;;;2.40;;
545;SDS011;259;53.304;9.816;2024-03-02T00:48:47;3.10;;;2.90;;
545;SDS011;259;53.304;9.816;2024-03-02T00:51:22;2.97;;;2.77;;
545;SDS011;259;53.304;9.816;2024-03-02T00:53:49;3.00;;;2.80;;
545;SDS011;259;53.304;9.816;2024-03-02T00:56:23;2.80;;;2.60;;
545;SDS011;259;53.304;9.816;2024-03-02T00:58:49;2.43;;;2.23;;
545;SDS011;259;53.304;9.816;2024-03-02T01:01:16;2.50;;;2.30;;
545;SDS011;259;53.304;9.816;2024-03-02T01:03:42;3.03;;;2.83;;
545;SDS011;259;53.304;9.816;2024-03-02T01:06:08;2.90;;;2.70;;
545;SDS011;259;53.304;9.816;2024-03-02T01:08:37;2.07;;;1.97;;
545;SDS011;259;53.304;9.816;2024-03-02T01:11:04;2.80;;;2.60;;
545;SDS011;259;53.304;9.816;2024-03-02T01:13:30;2.47;;;2.37;;
545;SDS011;259;53.304;9.816;2024-03-02T01:15:56;2.97;;;2.77;;
545;SDS011;259;53.304;9.816;2024-03-02T01:18:23;2.40;;;2.30;;
545;SDS011;259;53.304;9.816;2024-03-02T01:20:49;3.40;;;3.00;;
545;SDS011;259;53.304;9.816;2024-03-02T01:23:17;2.80;;;2.23;;
545;SDS011;259;53.304;9.816;2024-03-02T01:25:47;3.03;;;2.83;;
545;SDS011;259;53.304;9.816;2024-03-02T01:28:13;2.47;;;2.37;;
545;SDS011;259;53.304;9.816;2024-03-02T01:30:39;2.63;;;2.43;;
545;SDS011;259;53.304;9.816;2024-03-02T01:33:05;2.80;;;2.60;;
545;SDS011;259;53.304;9.816;2024-03-02T01:35:31;3.03;;;2.83;;
545;SDS011;259;53.304;9.816;2024-03-02T01:37:57;2.93;;;2.70;;
545;SDS011;259;53.304;9.816;2024-03-02T01:40:23;2.70;;;2.53;;
545;SDS011;259;53.304;9.816;2024-03-02T01:42:51;3.20;;;3.00;;
545;SDS011;259;53.304;9.816;2024-03-02T01:45:19;2.50;;;2.30;;
545;SDS011;259;53.304;9.816;2024-03-02T01:47:45;2.90;;;2.70;;
545;SDS011;259;53.304;9.816;2024-03-02T01:50:11;3.40;;;3.10;;
545;SDS011;259;53.304;9.816;2024-03-02T01:52:37;2.97;;;2.77;;
545;SDS011;259;53.304;9.816;2024-03-02T01:55:04;2.40;;;2.30;;
545;SDS011;259;53.304;9.816;2024-03-02T01:57:31;2.63;;;2.43;;
545;SDS011;259;53.304;9.816;2024-03-02T01:59:57;2.90;;;2.70;;
545;SDS011;259;53.304;9.816;2024-03-02T02:02:23;3.00;;;2.80;;
545;SDS011;259;53.304;9.816;2024-03-02T02:04:49;3.37;;;3.10;;
545;SDS011;259;53.304;9.816;2024-03-02T02:07:15;2.60;;;2.50;;
545;SDS011;259;53.304;9.816;2024-03-02T02:09:41;2.60;;;2.50;;
545;SDS011;259;53.304;9.816;2024-03-02T02:12:07;3.07;;;2.87;;
545;SDS011;259;53.304;9.816;2024-03-02T02:14:34;2.73;;;2.53;;
545;SDS011;259;53.304;9.816;2024-03-02T02:17:01;2.93;;;2.70;;
545;SDS011;259;53.304;9.816;2024-03-02T02:19:27;2.60;;;2.40;;
545;SDS011;259;53.304;9.816;2024-03-02T02:21:52;2.80;;;2.60;;
545;SDS011;259;53.304;9.816;2024-03-02T02:24:18;2.50;;;2.40;;
545;SDS011;259;53.304;9.816;2024-03-02T02:26:44;3.27;;;3.00;;
545;SDS011;259;53.304;9.816;2024-03-02T02:29:09;2.73;;;2.63;;
545;SDS011;259;53.304;9.816;2024-03-02T02:31:38;2.77;;;2.60;;
545;SDS011;259;53.304;9.816;2024-03-02T02:34:05;2.90;;;2.70;;
545;SDS011;259;53.304;9.816;2024-03-02T02:36:33;2.63;;;2.50;;
545;SDS011;259;53.304;9.816;2024-03-02T02:39:02;3.47;;;3.27;;
545;SDS011;259;53.304;9.816;2024-03-02T02:41:29;2.90;;;2.70;;
545;SDS011;259;53.304;9.816;2024-03-02T02:43:55;2.90;;;2.70;;
545;SDS011;259;53.304;9.816;2024-03-02T02:46:21;2.87;;;2.67;;
545;SDS011;259;53.304;9.816;2024-03-02T02:48:47;2.90;;;2.70;;
545;SDS011;259;53.304;9.816;2024-03-02T02:51:13;2.60;;;2.40;;
545;SDS011;259;53.304;9.816;2024-03-02T02:53:38;3.10;;;2.90;;
545;SDS011;259;53.304;9.816;2024-03-02T02:56:06;2.50;;;2.40;;
545;SDS011;259;53.304;9.816;2024-03-02T02:58:32;2.53;;;2.43;;
545;SDS011;259;53.304;9.816;2024-03-02T03:00:58;2.60;;;2.40;;
545;SDS011;259;53.304;9.816;2024-03-02T03:03:23;2.90;;;2.70;;
545;SDS011;259;53.304;9.816;2024-03-02T03:05:49;2.80;;;2.60;;
545;SDS011;259;53.304;9.816;2024-03-02T03:08:15;2.87;;;2.67;;
545;SDS011;259;53.304;9.816;2024-03-02T03:10:41;2.30;;;2.20;;
545;SDS011;259;53.304;9.816;2024-03-02T03:13:07;3.47;;;3.17;;
545;SDS011;259;53.304;9.816;2024-03-02T03:15:36;2.87;;;2.67;;
545;SDS011;259;53.304;9.816;2024-03-02T03:18:03;2.53;;;2.43;;
545;SDS011;259;53.304;9.816;2024-03-02T03:20:29;2.87;;;2.67;;
545;SDS011;259;53.304;9.816;2024-03-02T03:22:59;3.10;;;2.90;;
545;SDS011;259;53.304;9.816;2024-03-02T03:25:25;2.70;;;2.50;;
545;SDS011;259;53.304;9.816;2024-03-02T03:27:51;2.80;;;2.60;;
545;SDS011;259;53.304;9.816;2024-03-02T03:30:19;2.63;;;2.43;;
545;SDS011;259;53.304;9.816;2024-03-02T03:32:45;2.60;;;2.40;;
545;SDS011;259;53.304;9.816;2024-03-02T03:35:10;2.83;;;2.70;;
545;SDS011;259;53.304;9.816;2024-03-02T03:37:37;2.80;;;2.60;;
545;SDS011;259;53.304;9.816;2024-03-02T03:40:03;3.10;;;2.90;;
545;SDS011;259;53.304;9.816;2024-03-02T03:42:36;3.20;;;3.00;;
545;SDS011;259;53.304;9.816;2024-03-02T03:45:03;2.87;;;2.67;;
545;SDS011;259;53.304;9.816;2024-03-02T03:47:31;2.80;;;2.60;;
545;SDS011;259;53.304;9.816;2024-03-02T03:49:57;2.63;;;2.43;;
545;SDS011;259;53.304;9.816;2024-03-02T03:52:22;2.57;;;2.43;;
545;SDS011;259;53.304;9.816;2024-03-02T03:54:48;2.73;;;2.53;;
545;SDS011;259;53.304;9.816;2024-03-02T03:57:15;3.30;;;3.10;;
545;SDS011;259;53.304;9.816;2024-03-02T03:59:41;2.53;;;2.40;;
545;SDS011;259;53.304;9.816;2024-03-02T04:02:07;2.20;;;2.10;;
545;SDS011;259;53.304;9.816;2024-03-02T04:04:34;2.50;;;2.30;;
545;SDS011;259;53.304;9.816;2024-03-02T04:07:00;2.80;;;2.60;;
545;SDS011;259;53.304;9.816;2024-03-02T04:09:26;2.80;;;2.60;;
545;SDS011;259;53.304;9.816;2024-03-02T04:11:52;2.80;;;2.60;;
545;SDS011;259;53.304;9.816;2024-03-02T04:14:18;2.70;;;2.50;;
545;SDS011;259;53.304;9.816;2024-03-02T04:16:43;3.37;;;3.07;;
545;SDS011;259;53.304;9.816;2024-03-02T04:19:09;2.70;;;2.50;;
545;SDS011;259;53.304;9.816;2024-03-02T04:21:35;2.80;;;2.60;;
545;SDS011;259;53.304;9.816;2024-03-02T04:24:01;3.60;;;3.30;;
545;SDS011;259;53.304;9.816;2024-03-02T04:26:26;2.90;;;2.70;;
545;SDS011;259;53.304;9.816;2024-03-02T04:28:52;2.83;;;2.63;;
545;SDS011;259;53.304;9.816;2024-03-02T04:31:19;2.80;;;2.60;;
545;SDS011;259;53.304;9.816;2024-03-02T04:33:45;2.90;;;2.70;;
545;SDS011;259;53.304;9.816;2024-03-02T04:36:11;2.90;;;2.70;;
545;SDS011;259;53.304;9.816;2024-03-02T04:38:39;2.93;;;2.73;;
545;SDS011;259;53.304;9.816;2024-03-02T04:41:05;3.07;;;2.87;;
545;SDS011;259;53.304;9.816;2024-03-02T04:43:31;2.53;;;2.43;;
545;SDS011;259;53.304;9.816;2024-03-02T04:46:00;3.03;;;2.83;;
545;SDS011;259;53.304;9.816;2024-03-02T04:48:26;3.10;;;2.90;;
545;SDS011;259;53.304;9.816;2024-03-02T04:50:52;3.07;;;2.83;;
545;SDS011;259;53.304;9.816;2024-03-02T04:53:18;3.00;;;2.80;;
545;SDS011;259;53.304;9.816;2024-03-02T04:55:43;3.10;;;2.90;;
545;SDS011;259;53.304;9.816;2024-03-02T04:58:09;3.07;;;2.87;;
545;SDS011;259;53.304;9.816;2024-03-02T05:00:35;2.80;;;2.60;;
545;SDS011;259;53.304;9.816;2024-03-02T05:03:01;3.10;;;2.90;;
545;SDS011;259;53.304;9.816;2024-03-02T05:05:27;3.00;;;2.80;;
545;SDS011;259;53.304;9.816;2024-03-02T05:07:53;2.93;;;2.73;;
545;SDS011;259;53.304;9.816;2024-03-02T05:10:19;2.90;;;2.70;;
545;SDS011;259;53.304;9.816;2024-03-02T05:12:45;2.93;;;2.73;;
545;SDS011;259;53.304;9.816;2024-03-02T05:15:11;2.80;;;2.70;;
545;SDS011;259;53.304;9.816;2024-03-02T05:17:39;3.13;;;2.93;;
545;SDS011;259;53.304;9.816;2024-03-02T05:20:09;2.80;;;2.60;;
545;SDS011;259;53.304;9.816;2024-03-02T05:22:35;2.83;;;2.63;;
545;SDS011;259;53.304;9.816;2024-03-02T05:25:02;3.03;;;2.83;;
545;SDS011;259;53.304;9.816;2024-03-02T05:27:28;3.00;;;2.80;;
545;SDS011;259;53.304;9.816;2024-03-02T05:29:54;3.63;;;3.30;;
545;SDS011;259;53.304;9.816;2024-03-02T05:32:20;3.20;;;2.90;;
545;SDS011;259;53.304;9.816;2024-03-02T05:34:45;2.73;;;2.53;;
545;SDS011;259;53.304;9.816;2024-03-02T05:37:11;3.50;;;3.20;;
545;SDS011;259;53.304;9.816;2024-03-02T05:39:37;3.07;;;2.87;;
545;SDS011;259;53.304;9.816;2024-03-02T05:42:03;2.80;;;2.60;;
545;SDS011;259;53.304;9.816;2024-03-02T05:44:29;3.10;;;2.90;;
545;SDS011;259;53.304;9.816;2024-03-02T05:46:54;2.40;;;2.20;;
545;SDS011;259;53.304;9.816;2024-03-02T05:49:20;3.47;;;3.27;;
545;SDS011;259;53.304;9.816;2024-03-02T05:51:46;2.80;;;2.60;;
545;SDS011;259;53.304;9.816;2024-03-02T05:54:12;2.70;;;2.50;;
545;SDS011;259;53.304;9.816;2024-03-02T05:56:38;2.97;;;2.77;;
545;SDS011;259;53.304;9.816;2024-03-02T05:59:03;2.73;;;2.53;;
545;SDS011;259;53.304;9.816;2024-03-02T06:01:45;2.83;;;2.63;;
545;SDS011;259;53.304;9.816;2024-03-02T06:04:12;2.80;;;2.60;;
545;SDS011;259;53.304;9.816;2024-03-02T06:06:38;2.87;;;2.77;;
545;SDS011;259;53.304;9.816;2024-03-02T06:09:05;3.10;;;2.90;;
545;SDS011;259;53.304;9.816;2024-03-02T06:11:33;3.20;;;3.00;;
545;SDS011;259;53.304;9.816;2024-03-02T06:14:00;2.90;;;2.70;;
545;SDS011;259;53.304;9.816;2024-03-02T06:16:26;3.40;;;3.20;;
545;SDS011;259;53.304;9.816;2024-03-02T06:18:51;3.27;;;3.07;;
545;SDS011;259;53.304;9.816;2024-03-02T06:21:19;3.13;;;2.93;;
545;SDS011;259;53.304;9.816;2024-03-02T06:23:45;2.90;;;2.70;;
545;SDS011;259;53.304;9.816;2024-03-02T06:26:11;3.37;;;3.07;;
545;SDS011;259;53.304;9.816;2024-03-02T06:28:37;3.30;;;3.10;;
545;SDS011;259;53.304;9.816;2024-03-02T06:31:03;3.03;;;2.77;;
545;SDS011;259;53.304;9.816;2024-03-02T06:33:29;3.27;;;3.07;;
545;SDS011;259;53.304;9.816;2024-03-02T06:35:55;3.13;;;2.90;;
545;SDS011;259;53.304;9.816;2024-03-02T06:38:20;3.23;;;3.03;;
545;SDS011;259;53.304;9.816;2024-03-02T06:40:46;3.60;;;3.30;;
545;SDS011;259;53.304;9.816;2024-03-02T06:43:12;2.83;;;2.70;;
545;SDS011;259;53.304;9.816;2024-03-02T06:45:38;2.97;;;2.77;;
545;SDS011;259;53.304;9.816;2024-03-02T06:48:03;3.00;;;2.80;;
545;SDS011;259;53.304;9.816;2024-03-02T06:50:30;3.37;;;3.07;;
545;SDS011;259;53.304;9.816;2024-03-02T06:52:55;4.00;;;3.70;;
545;SDS011;259;53.304;9.816;2024-03-02T06:55:22;3.07;;;2.87;;
545;SDS011;259;53.304;9.816;2024-03-02T06:57:49;2.80;;;2.60;;
545;SDS011;259;53.304;9.816;2024-03-02T07:00:15;3.63;;;3.33;;
545;SDS011;259;53.304;9.816;2024-03-02T07:02:43;2.60;;;2.40;;
545;SDS011;259;53.304;9.816;2024-03-02T07:05:09;3.30;;;3.00;;
545;SDS011;259;53.304;9.816;2024-03-02T07:07:36;3.47;;;3.27;;
545;SDS011;259;53.304;9.816;2024-03-02T07:10:05;3.00;;;2.80;;
545;SDS011;259;53.304;9.816;2024-03-02T07:12:32;3.90;;;3.60;;
545;SDS011;259;53.304;9.816;2024-03-02T07:14:58;4.23;;;3.93;;
545;SDS011;259;53.304;9.816;2024-03-02T07:17:29;3.37;;;3.07;;
545;SDS011;259;53.304;9.816;2024-03-02T07:19:56;2.63;;;2.43;;
545;SDS011;259;53.304;9.816;2024-03-02T07:22:22;3.40;;;3.20;;
545;SDS011;259;53.304;9.816;2024-03-02T07:24:49;3.37;;;3.07;;
545;SDS011;259;53.304;9.816;2024-03-02T07:27:15;3.30;;;3.10;;
545;SDS011;259;53.304;9.816;2024-03-02T07:29:42;2.80;;;2.60;;
545;SDS011;259;53.304;9.816;2024-03-02T07:32:08;3.23;;;2.93;;
545;SDS011;259;53.304;9.816;2024-03-02T07:34:35;3.47;;;3.17;;
545;SDS011;259;53.304;9.816;2024-03-02T07:37:01;3.10;;;2.90;;
545;SDS011;259;53.304;9.816;2024-03-02T07:39:26;2.97;;;2.77;;
545;SDS011;259;53.304;9.816;2024-03-02T07:41:52;3.27;;;3.07;;
545;SDS011;259;53.304;9.816;2024-03-02T07:44:18;3.40;;;3.20;;
545;SDS011;259;53.304;9.816;2024-03-02T07:46:45;2.50;;;2.40;;
545;SDS011;259;53.304;9.816;2024-03-02T07:49:12;2.93;;;2.73;;
545;SDS011;259;53.304;9.816;2024-03-02T07:51:41;3.27;;;3.00;;
545;SDS011;259;53.304;9.816;2024-03-02T07:54:07;2.97;;;2.77;;
545;SDS011;259;53.304;9.816;2024-03-02T07:56:33;3.37;;;3.17;;
545;SDS011;259;53.304;9.816;2024-03-02T07:58:59;3.27;;;3.07;;
545;SDS011;259;53.304;9.816;2024-03-02T08:01:27;3.20;;;3.00;;
545;SDS011;259;53.304;9.816;2024-03-02T08:03:57;2.70;;;2.50;;
545;SDS011;259;53.304;9.816;2024-03-02T08:06:27;3.10;;;2.90;;
545;SDS011;259;53.304;9.816;2024-03-02T08:08:53;3.83;;;3.40;;
545;SDS011;259;53.304;9.816;2024-03-02T08:11:21;2.70;;;2.50;;
545;SDS011;259;53.304;9.816;2024-03-02T08:13:47;3.10;;;2.90;;
545;SDS011;259;53.304;9.816;2024-03-02T08:16:13;2.90;;;2.70;;
545;SDS011;259;53.304;9.816;2024-03-02T08:18:45;3.10;;;2.90;;
545;SDS011;259;53.304;9.816;2024-03-02T08:21:14;3.10;;;2.90;;
545;SDS011;259;53.304;9.816;2024-03-02T08:23:41;3.00;;;2.80;;
545;SDS011;259;53.304;9.816;2024-03-02T08:26:11;2.80;;;2.60;;
545;SDS011;259;53.304;9.816;2024-03-02T08:28:36;3.13;;;2.93;;
545;SDS011;259;53.304;9.816;2024-03-02T08:31:03;2.93;;;2.73;;
545;SDS011;259;53.304;9.816;2024-03-02T08:33:29;2.87;;;2.67;;
545;SDS011;259;53.304;9.816;2024-03-02T08:35:55;3.43;;;3.13;;
545;SDS011;259;53.304;9.816;2024-03-02T08:38:21;3.57;;;3.33;;
545;SDS011;259;53.304;9.816;2024-03-02T08:40:47;3.13;;;2.93;;
545;SDS011;259;53.304;9.816;2024-03-02T08:43:15;3.20;;;2.80;;
545;SDS011;259;53.304;9.816;2024-03-02T08:45:40;3.13;;;2.93;;
545;SDS011;259;53.304;9.816;2024-03-02T08:48:09;3.33;;;3.13;;
545;SDS011;259;53.304;9.816;2024-03-02T08:50:35;3.30;;;3.10;;
545;SDS011;259;53.304;9.816;2024-03-02T08:53:01;3.20;;;3.00;;
545;SDS011;259;53.304;9.816;2024-03-02T08:55:29;3.13;;;2.93;;
545;SDS011;259;53.304;9.816;2024-03-02T08:57:55;2.80;;;2.60;;
545;SDS011;259;53.304;9.816;2024-03-02T09:00:21;2.63;;;2.43;;
545;SDS011;259;53.304;9.816;2024-03-02T09:02:47;3.10;;;2.87;;
545;SDS011;259;53.304;9.816;2024-03-02T09:05:12;3.30;;;3.00;;
545;SDS011;259;53.304;9.816;2024-03-02T09:07:38;3.50;;;3.30;;
545;SDS011;259;53.304;9.816;2024-03-02T09:10:05;3.67;;;3.40;;
545;SDS011;259;53.304;9.816;2024-03-02T09:12:32;3.77;;;3.47;;
545;SDS011;259;53.304;9.816;2024-03-02T09:14:58;3.57;;;3.27;;
545;SDS011;259;53.304;9.816;2024-03-02T09:17:25;3.63;;;2.87;;
545;SDS011;259;53.304;9.816;2024-03-02T09:19:51;5.47;;;3.30;;
545;SDS011;259;53.304;9.816;2024-03-02T09:22:17;4.47;;;3.10;;
545;SDS011;259;53.304;9.816;2024-03-02T09:24:44;4.60;;;3.80;;
545;SDS011;259;53.304;9.816;2024-03-02T09:27:09;3.30;;;3.00;;
545;SDS011;259;53.304;9.816;2024-03-02T09:29:35;3.17;;;2.80;;
545;SDS011;259;53.304;9.816;2024-03-02T09:32:01;3.40;;;3.10;;
545;SDS011;259;53.304;9.816;2024-03-02T09:34:27;3.13;;;2.93;;
545;SDS011;259;53.304;9.816;2024-03-02T09:36:53;3.47;;;3.20;;
545;SDS011;259;53.304;9.816;2024-03-02T09:39:18;3.50;;;3.20;;
545;SDS011;259;53.304;9.816;2024-03-02T09:41:44;3.53;;;3.23;;
545;SDS011;259;53.304;9.816;2024-03-02T09:44:10;4.57;;;3.63;;
545;SDS011;259;53.304;9.816;2024-03-02T09:46:36;3.43;;;3.13;;
545;SDS011;259;53.304;9.816;2024-03-02T09:49:02;3.83;;;3.40;;
545;SDS011;259;53.304;9.816;2024-03-02T09:51:28;4.40;;;4.00;;
545;SDS011;259;53.304;9.816;2024-03-02T09:53:54;3.90;;;3.60;;
545;SDS011;259;53.304;9.816;2024-03-02T09:56:21;4.80;;;4.03;;
545;SDS011;259;53.304;9.816;2024-03-02T09:58:47;3.60;;;3.30;;
545;SDS011;259;53.304;9.816;2024-03-02T10:01:13;3.97;;;3.67;;
545;SDS011;259;53.304;9.816;2024-03-02T10:03:38;3.73;;;3.43;;
545;SDS011;259;53.304;9.816;2024-03-02T10:06:18;4.40;;;4.10;;
545;SDS011;259;53.304;9.816;2024-03-02T10:08:48;3.67;;;3.37;;
545;SDS011;259;53.304;9.816;2024-03-02T10:11:27;5.27;;;4.40;;
545;SDS011;259;53.304;9.816;2024-03-02T10:16:42;13.63;;;12.33;;
545;SDS011;259;53.304;9.816;2024-03-02T10:19:21;14.50;;;12.10;;
545;SDS011;259;53.304;9.816;2024-03-02T10:21:52;14.03;;;11.73;;
545;SDS011;259;53.304;9.816;2024-03-02T10:24:19;12.33;;;10.60;;
545;SDS011;259;53.304;9.816;2024-03-02T10:26:46;19.83;;;11.93;;
545;SDS011;259;53.304;9.816;2024-03-02T10:29:16;14.63;;;10.57;;
545;SDS011;259;53.304;9.816;2024-03-02T10:31:43;15.83;;;10.60;;
545;SDS011;259;53.304;9.816;2024-03-02T10:34:13;11.43;;;10.07;;
545;SDS011;259;53.304;9.816;2024-03-02T10:36:42;12.93;;;8.77;;
545;SDS011;259;53.304;9.816;2024-03-02T10:39:10;9.10;;;8.23;;
545;SDS011;259;53.304;9.816;2024-03-02T10:41:39;10.87;;;8.40;;
545;SDS011;259;53.304;9.816;2024-03-02T10:44:06;7.63;;;6.93;;
545;SDS011;259;53.304;9.816;2024-03-02T10:46:34;8.47;;;7.63;;
545;SDS011;259;53.304;9.816;2024-03-02T10:49:02;7.80;;;7.10;;
545;SDS011;259;53.304;9.816;2024-03-02T10:51:30;8.57;;;6.70;;
545;SDS011;259;53.304;9.816;2024-03-02T10:53:58;8.93;;;8.03;;
545;SDS011;259;53.304;9.816;2024-03-02T10:56:28;7.43;;;6.70;;
545;SDS011;259;53.304;9.816;2024-03-02T10:59:04;6.70;;;6.00;;
545;SDS011;259;53.304;9.816;2024-03-02T11:01:35;10.03;;;7.57;;
545;SDS011;259;53.304;9.816;2024-03-02T11:04:04;7.53;;;6.83;;
545;SDS011;259;53.304;9.816;2024-03-02T11:06:34;9.10;;;6.80;;
545;SDS011;259;53.304;9.816;2024-03-02T11:09:05;11.50;;;8.63;;
545;SDS011;259;53.304;9.816;2024-03-02T11:11:36;10.20;;;9.30;;
545;SDS011;259;53.304;9.816;2024-03-02T11:14:07;14.10;;;12.33;;
545;SDS011;259;53.304;9.816;2024-03-02T11:16:38;13.30;;;11.60;;
545;SDS011;259;53.304;9.816;2024-03-02T11:19:06;11.83;;;10.30;;
545;SDS011;259;53.304;9.816;2024-03-02T11:21:35;11.50;;;10.40;;
545;SDS011;259;53.304;9.816;2024-03-02T11:24:28;13.57;;;12.40;;
545;SDS011;259;53.304;9.816;2024-03-02T11:27:02;16.10;;;13.27;;
545;SDS011;259;53.304;9.816;2024-03-02T11:32:04;12.83;;;10.20;;
545;SDS011;259;53.304;9.816;2024-03-02T11:34:41;18.10;;;10.50;;
545;SDS011;259;53.304;9.816;2024-03-02T11:37:12;14.57;;;10.30;;
545;SDS011;259;53.304;9.816;2024-03-02T11:39:42;16.60;;;11.23;;
545;SDS011;259;53.304;9.816;2024-03-02T11:42:11;19.07;;;10.33;;
545;SDS011;259;53.304;9.816;2024-03-02T11:44:39;16.80;;;8.17;;
545;SDS011;259;53.304;9.816;2024-03-02T11:47:10;9.93;;;8.20;;
545;SDS011;259;53.304;9.816;2024-03-02T11:49:41;9.50;;;7.80;;
545;SDS011;259;53.304;9.816;2024-03-02T11:52:15;11.23;;;6.57;;
545;SDS011;259;53.304;9.816;2024-03-02T11:54:44;7.47;;;6.20;;
545;SDS011;259;53.304;9.816;2024-03-02T11:57:32;10.40;;;6.90;;
545;SDS011;259;53.304;9.816;2024-03-02T11:59:58;7.27;;;6.57;;
545;SDS011;259;53.304;9.816;2024-03-02T12:02:24;6.80;;;6.20;;
545;SDS011;259;53.304;9.816;2024-03-02T12:04:50;11.47;;;8.40;;
545;SDS011;259;53.304;9.816;2024-03-02T12:07:19;24.23;;;10.93;;
545;SDS011;259;53.304;9.816;2024-03-02T12:09:49;30.07;;;26.83;;
545;SDS011;259;53.304;9.816;2024-03-02T12:12:26;103.37;;;80.00;;
545;SDS011;259;53.304;9.816;2024-03-02T12:14:52;82.70;;;58.20;;
545;SDS011;259;53.304;9.816;2024-03-02T12:17:21;66.07;;;47.27;;
545;SDS011;259;53.304;9.816;2024-03-02T12:19:48;50.97;;;43.20;;
545;SDS011;259;53.304;9.816;2024-03-02T12:22:14;47.63;;;38.20;;
545;SDS011;259;53.304;9.816;2024-03-02T12:24:43;39.50;;;30.00;;
545;SDS011;259;53.304;9.816;2024-03-02T12:27:12;32.93;;;27.30;;
545;SDS011;259;53.304;9.816;2024-03-02T12:29:41;32.77;;;25.23;;
545;SDS011;259;53.304;9.816;2024-03-02T12:32:07;33.30;;;23.07;;
545;SDS011;259;53.304;9.816;2024-03-02T12:34:33;26.23;;;20.40;;
545;SDS011;259;53.304;9.816;2024-03-02T12:36:58;20.17;;;16.80;;
545;SDS011;259;53.304;9.816;2024-03-02T12:39:24;28.17;;;18.83;;
545;SDS011;259;53.304;9.816;2024-03-02T12:41:51;19.50;;;17.50;;
545;SDS011;259;53.304;9.816;2024-03-02T12:44:18;19.20;;;15.40;;
545;SDS011;259;53.304;9.816;2024-03-02T12:46:44;17.27;;;14.90;;
545;SDS011;259;53.304;9.816;2024-03-02T12:49:13;28.73;;;20.30;;
545;SDS011;259;53.304;9.816;2024-03-02T12:51:41;25.87;;;20.27;;
545;SDS011;259;53.304;9.816;2024-03-02T12:54:08;27.80;;;22.23;;
545;SDS011;259;53.304;9.816;2024-03-02T12:56:35;24.83;;;18.83;;
545;SDS011;259;53.304;9.816;2024-03-02T12:59:02;39.83;;;35.60;;
545;SDS011;259;53.304;9.816;2024-03-02T13:01:29;54.67;;;48.83;;
545;SDS011;259;53.304;9.816;2024-03-02T13:03:56;54.47;;;48.70;;
545;SDS011;259;53.304;9.816;2024-03-02T13:06:23;79.50;;;71.40;;
545;SDS011;259;53.304;9.816;2024-03-02T13:08:49;55.40;;;49.53;;
545;SDS011;259;53.304;9.816;2024-03-02T13:11:15;77.70;;;70.60;;
545;SDS011;259;53.304;9.816;2024-03-02T13:13:41;76.23;;;68.47;;
545;SDS011;259;53.304;9.816;2024-03-02T13:16:11;67.53;;;60.50;;
545;SDS011;259;53.304;9.816;2024-03-02T13:18:40;74.80;;;64.17;;
545;SDS011;259;53.304;9.816;2024-03-02T13:21:07;87.63;;;69.80;;
545;SDS011;259;53.304;9.816;2024-03-02T13:23:33;63.10;;;56.50;;
545;SDS011;259;53.304;9.816;2024-03-02T13:25:59;61.90;;;52.70;;
545;SDS011;259;53.304;9.816;2024-03-02T13:28:26;148.87;;;64.77;;
545;SDS011;259;53.304;9.816;2024-03-02T13:30:51;53.47;;;42.47;;
545;SDS011;259;53.304;9.816;2024-03-02T13:33:17;55.60;;;43.37;;
545;SDS011;259;53.304;9.816;2024-03-02T13:35:50;56.53;;;49.93;;
545;SDS011;259;53.304;9.816;2024-03-02T13:38:19;53.47;;;44.60;;
545;SDS011;259;53.304;9.816;2024-03-02T13:40:46;61.30;;;44.50;;
545;SDS011;259;53.304;9.816;2024-03-02T13:43:16;51.60;;;46.10;;
545;SDS011;259;53.304;9.816;2024-03-02T13:45:42;64.60;;;53.50;;
545;SDS011;259;53.304;9.816;2024-03-02T13:48:07;113.13;;;73.13;;
545;SDS011;259;53.304;9.816;2024-03-02T13:50:33;69.40;;;61.77;;
545;SDS011;259;53.304;9.816;2024-03-02T13:52:59;101.57;;;91.30;;
545;SDS011;259;53.304;9.816;2024-03-02T13:55:24;601.00;;;233.30;;
545;SDS011;259;53.304;9.816;2024-03-02T13:57:50;318.27;;;286.83;;
545;SDS011;259;53.304;9.816;2024-03-02T14:00:19;267.83;;;240.23;;
545;SDS011;259;53.304;9.816;2024-03-02T14:02:45;244.40;;;218.70;;
545;SDS011;259;53.304;9.816;2024-03-02T14:05:11;232.37;;;208.80;;
545;SDS011;259;53.304;9.816;2024-03-02T14:07:38;236.80;;;213.03;;
545;SDS011;259;53.304;9.816;2024-03-02T14:10:04;226.43;;;202.83;;
545;SDS011;259;53.304;9.816;2024-03-02T14:12:30;218.13;;;195.67;;
545;SDS011;259;53.304;9.816;2024-03-02T14:14:56;213.83;;;191.83;;
545;SDS011;259;53.304;9.816;2024-03-02T14:17:27;209.73;;;188.77;;
545;SDS011;259;53.304;9.816;2024-03-02T14:19:53;203.90;;;183.40;;
545;SDS011;259;53.304;9.816;2024-03-02T14:22:22;201.97;;;182.00;;
545;SDS011;259;53.304;9.816;2024-03-02T14:24:47;200.40;;;180.47;;
545;SDS011;259;53.304;9.816;2024-03-02T14:27:14;198.20;;;178.63;;
545;SDS011;259;53.304;9.816;2024-03-02T14:29:43;191.13;;;171.90;;
545;SDS011;259;53.304;9.816;2024-03-02T14:32:08;184.27;;;166.40;;
545;SDS011;259;53.304;9.816;2024-03-02T14:34:34;183.70;;;165.37;;
545;SDS011;259;53.304;9.816;2024-03-02T14:37:00;184.73;;;166.93;;
545;SDS011;259;53.304;9.816;2024-03-02T14:39:26;178.70;;;162.00;;
545;SDS011;259;53.304;9.816;2024-03-02T14:41:52;173.97;;;156.80;;
545;SDS011;259;53.304;9.816;2024-03-02T14:44:18;168.13;;;152.10;;
545;SDS011;259;53.304;9.816;2024-03-02T14:46:46;168.67;;;152.07;;
545;SDS011;259;53.304;9.816;2024-03-02T14:49:13;164.43;;;148.83;;
545;SDS011;259;53.304;9.816;2024-03-02T14:51:38;164.77;;;148.23;;
545;SDS011;259;53.304;9.816;2024-03-02T14:54:04;156.87;;;141.87;;
545;SDS011;259;53.304;9.816;2024-03-02T14:56:30;152.67;;;138.50;;
545;SDS011;259;53.304;9.816;2024-03-02T14:58:56;157.30;;;142.50;;
545;SDS011;259;53.304;9.816;2024-03-02T15:01:21;150.53;;;136.53;;
545;SDS011;259;53.304;9.816;2024-03-02T15:03:50;151.07;;;136.50;;
545;SDS011;259;53.304;9.816;2024-03-02T15:06:16;149.60;;;135.60;;
545;SDS011;259;53.304;9.816;2024-03-02T15:08:42;146.63;;;133.53;;
545;SDS011;259;53.304;9.816;2024-03-02T15:11:10;147.33;;;133.70;;
545;SDS011;259;53.304;9.816;2024-03-02T15:13:36;143.33;;;130.10;;
545;SDS011;259;53.304;9.816;2024-03-02T15:16:02;147.50;;;133.50;;
545;SDS011;259;53.304;9.816;2024-03-02T15:18:28;141.17;;;128.07;;
545;SDS011;259;53.304;9.816;2024-03-02T15:20:53;129.70;;;118.00;;
545;SDS011;259;53.304;9.816;2024-03-02T15:23:19;137.07;;;124.80;;
545;SDS011;259;53.304;9.816;2024-03-02T15:25:45;138.27;;;125.67;;
545;SDS011;259;53.304;9.816;2024-03-02T15:28:10;131.23;;;119.17;;
545;SDS011;259;53.304;9.816;2024-03-02T15:30:36;128.37;;;116.23;;
545;SDS011;259;53.304;9.816;2024-03-02T15:33:02;127.30;;;115.43;;
545;SDS011;259;53.304;9.816;2024-03-02T15:35:28;122.70;;;112.03;;
545;SDS011;259;53.304;9.816;2024-03-02T15:37:54;130.87;;;119.20;;
545;SDS011;259;53.304;9.816;2024-03-02T15:40:20;118.93;;;108.17;;